Time;durP1;ratioP1;P1;durP2;ratioP2;P2;SDS_P1;SDS_P2;PMS_P1;PMS_P2;Temp;Humidity;BMP_temperature;BMP_pressure;BME280_temperature;BME280_humidity;BME280_pressure;Samples;Min_cycle;Max_cycle;Signal;HPM_P1;HPM_P2
2022/10/12 00:01:22;;;;;;;13.23;6.07;;;8.80;99.90;;;;;;5051943;28;20029;-86
2022/10/12 00:03:48;;;;;;;11.97;5.50;;;8.80;99.90;;;;;;5052225;28;20064;-86
2022/10/12 00:06:21;;;;;;;13.33;5.33;;;8.80;99.90;;;;;;5051969;28;20061;-86
2022/10/12 00:08:48;;;;;;;13.13;4.90;;;8.70;99.90;;;;;;5051616;28;20032;-86
2022/10/12 00:11:17;;;;;;;13.67;5.33;;;8.70;99.90;;;;;;5052207;28;20030;-85
2022/10/12 00:13:45;;;;;;;11.80;4.83;;;8.70;99.90;;;;;;5034233;28;20174;-86
2022/10/12 00:16:14;;;;;;;11.57;4.23;;;8.70;99.90;;;;;;5051914;28;20037;-86
2022/10/12 00:18:39;;;;;;;12.60;4.17;;;8.70;99.90;;;;;;5051408;28;20033;-86
2022/10/12 00:21:11;;;;;;;11.20;4.93;;;8.60;99.90;;;;;;5051924;28;20070;-86
2022/10/12 00:23:37;;;;;;;11.60;4.80;;;8.60;99.90;;;;;;5017645;28;20485;-85
2022/10/12 00:26:09;;;;;;;19.03;5.60;;;8.60;99.90;;;;;;5051732;28;20389;-86
2022/10/12 00:28:35;;;;;;;16.37;4.93;;;8.50;99.90;;;;;;5033691;28;20516;-86
2022/10/12 00:31:15;;;;;;;14.13;4.57;;;8.40;99.90;;;;;;5051556;28;20513;-86
2022/10/12 00:33:42;;;;;;;11.20;5.07;;;8.40;99.90;;;;;;5033836;28;20510;-86
2022/10/12 00:36:26;;;;;;;12.37;4.53;;;8.30;99.90;;;;;;5051177;28;20531;-86
2022/10/12 00:38:53;;;;;;;9.87;4.33;;;8.30;99.90;;;;;;5051322;28;20520;-86
2022/10/12 00:41:24;;;;;;;10.77;4.07;;;8.30;99.90;;;;;;5051234;28;20045;-86
2022/10/12 00:43:52;;;;;;;8.37;3.83;;;8.20;99.90;;;;;;5051480;28;20392;-86
2022/10/12 00:46:21;;;;;;;9.10;4.10;;;8.20;99.90;;;;;;5051030;28;20111;-86
2022/10/12 00:48:52;;;;;;;9.30;3.40;;;8.20;99.90;;;;;;5033058;28;20033;-86
2022/10/12 00:51:20;;;;;;;10.57;4.17;;;8.20;99.90;;;;;;5051150;28;20039;-86
2022/10/12 00:53:57;;;;;;;11.17;4.80;;;8.20;99.90;;;;;;5051238;28;20070;-86
2022/10/12 00:56:26;;;;;;;8.23;4.03;;;8.20;99.90;;;;;;5051045;28;20112;-86
2022/10/12 00:58:53;;;;;;;11.48;3.88;;;8.20;99.90;;;;;;5050813;28;20043;-86
2022/10/12 01:01:20;;;;;;;11.10;3.77;;;8.20;99.90;;;;;;5033448;28;20036;-86
2022/10/12 01:03:47;;;;;;;7.93;3.53;;;8.20;99.90;;;;;;5051271;28;20111;-87
2022/10/12 01:06:13;;;;;;;8.37;3.47;;;8.10;99.90;;;;;;5050971;28;20033;-86
2022/10/12 01:08:41;;;;;;;11.37;3.87;;;8.10;99.90;;;;;;5016531;28;20025;-87
2022/10/12 01:11:07;;;;;;;11.47;3.67;;;8.10;99.90;;;;;;5050895;28;20028;-86
2022/10/12 01:13:33;;;;;;;9.63;4.53;;;8.10;99.90;;;;;;5050847;28;20473;-87
2022/10/12 01:16:25;;;;;;;9.13;3.87;;;8.10;99.90;;;;;;5032900;28;20028;-86
2022/10/12 01:19:15;;;;;;;10.07;3.57;;;8.10;99.90;;;;;;5009214;28;20040;-86
2022/10/12 01:21:50;;;;;;;10.03;3.43;;;8.10;99.90;;;;;;5031012;28;20084;-86
2022/10/12 01:24:41;;;;;;;5.20;2.73;;;8.00;99.90;;;;;;5013305;28;20084;-86
2022/10/12 01:27:34;;;;;;;7.80;3.60;;;8.10;99.90;;;;;;5031177;28;20032;-86
2022/10/12 01:30:08;;;;;;;6.03;3.20;;;8.10;99.90;;;;;;5030653;28;20041;-86
2022/10/12 01:32:48;;;;;;;8.47;3.30;;;8.10;99.90;;;;;;5031641;28;20036;-86
2022/10/12 01:35:26;;;;;;;8.80;3.50;;;8.20;99.90;;;;;;5013613;28;20044;-86
2022/10/12 01:38:37;;;;;;;9.57;3.70;;;8.10;99.90;;;;;;5031206;28;20041;-86
2022/10/12 01:41:20;;;;;;;6.53;3.07;;;8.00;99.90;;;;;;5031186;28;20026;-86
2022/10/12 01:43:49;;;;;;;11.10;3.57;;;8.00;99.90;;;;;;5013897;28;20034;-86
2022/10/12 01:46:14;;;;;;;9.30;3.30;;;8.00;99.90;;;;;;5015219;28;20136;-86
2022/10/12 01:48:41;;;;;;;9.73;3.40;;;8.00;99.90;;;;;;5033295;28;20642;-86
2022/10/12 01:51:11;;;;;;;7.93;3.50;;;7.90;99.90;;;;;;5017284;28;20044;-86
2022/10/12 01:54:10;;;;;;;8.90;3.27;;;7.90;99.90;;;;;;5035009;28;20101;-86
2022/10/12 01:57:16;;;;;;;10.43;3.40;;;8.00;99.90;;;;;;5014009;28;20029;-86
2022/10/12 01:59:46;;;;;;;10.57;3.43;;;8.00;99.90;;;;;;5012766;28;20037;-86
2022/10/12 02:02:33;;;;;;;9.10;3.20;;;8.00;99.90;;;;;;5016750;28;20040;-86
2022/10/12 02:05:31;;;;;;;8.83;3.30;;;8.00;99.90;;;;;;5017124;28;20025;-86
2022/10/12 02:08:25;;;;;;;10.80;3.43;;;8.00;99.90;;;;;;5015953;28;20041;-86
2022/10/12 02:11:11;;;;;;;8.37;3.50;;;8.00;99.90;;;;;;5016968;28;20485;-86
2022/10/12 02:14:02;;;;;;;7.17;3.20;;;8.00;99.90;;;;;;5016760;28;20022;-86
2022/10/12 02:16:34;;;;;;;8.10;3.13;;;8.10;99.90;;;;;;5034350;28;20044;-86
2022/10/12 02:19:03;;;;;;;10.23;3.00;;;8.10;99.90;;;;;;5034145;28;20104;-86
2022/10/12 02:21:31;;;;;;;8.05;2.80;;;8.00;99.90;;;;;;5016540;28;20473;-86
2022/10/12 02:24:01;;;;;;;8.43;3.27;;;8.10;99.90;;;;;;5034244;28;20029;-87
2022/10/12 02:26:32;;;;;;;8.77;3.27;;;8.10;99.90;;;;;;5016195;28;20041;-86
2022/10/12 02:29:02;;;;;;;9.00;3.40;;;8.00;99.90;;;;;;5016525;28;20036;-86
2022/10/12 02:32:00;;;;;;;8.57;2.90;;;8.00;99.90;;;;;;5034049;28;20033;-86
2022/10/12 02:35:13;;;;;;;9.80;3.30;;;8.00;99.90;;;;;;4993152;28;20116;-86
2022/10/12 02:37:50;;;;;;;11.63;3.37;;;7.90;99.90;;;;;;5034039;28;20482;-86
2022/10/12 02:40:31;;;;;;;13.50;3.27;;;8.00;99.90;;;;;;5033482;28;20482;-86
2022/10/12 02:43:07;;;;;;;8.27;3.60;;;8.00;99.90;;;;;;5033829;28;20025;-86
2022/10/12 02:45:35;;;;;;;8.03;3.20;;;8.00;99.90;;;;;;5033774;28;20477;-86
2022/10/12 02:48:02;;;;;;;8.63;3.00;;;7.90;99.90;;;;;;5015782;28;20029;-86
2022/10/12 02:50:31;;;;;;;11.80;3.03;;;8.00;99.90;;;;;;5016265;28;20029;-86
2022/10/12 02:52:58;;;;;;;9.17;3.77;;;7.90;99.90;;;;;;5033652;28;20025;-86
2022/10/12 02:55:24;;;;;;;11.17;2.90;;;7.90;99.90;;;;;;5033603;28;20109;-86
2022/10/12 02:57:50;;;;;;;9.43;3.43;;;7.90;99.90;;;;;;5033309;28;20551;-86
2022/10/12 03:00:17;;;;;;;8.53;3.00;;;7.90;99.90;;;;;;5015566;28;20136;-86
2022/10/12 03:02:43;;;;;;;11.80;3.63;;;7.80;99.90;;;;;;5033406;28;20032;-86
2022/10/12 03:05:08;;;;;;;8.53;2.67;;;7.80;99.90;;;;;;5033431;28;20476;-86
2022/10/12 03:07:34;;;;;;;8.13;3.17;;;7.80;99.90;;;;;;5033218;28;20033;-86
2022/10/12 03:10:00;;;;;;;8.00;3.07;;;7.80;99.90;;;;;;5015312;28;20029;-86
2022/10/12 03:12:26;;;;;;;10.53;3.10;;;7.80;99.90;;;;;;5032785;28;20494;-86
2022/10/12 03:14:52;;;;;;;7.93;2.53;;;7.70;99.90;;;;;;5033286;28;20393;-86
2022/10/12 03:17:18;;;;;;;9.13;2.83;;;7.80;99.90;;;;;;5033168;28;20033;-86
2022/10/12 03:19:44;;;;;;;8.27;3.13;;;7.80;99.90;;;;;;5032761;28;20407;-86
2022/10/12 03:22:09;;;;;;;10.20;3.37;;;7.70;99.90;;;;;;5033116;28;20030;-86
2022/10/12 03:24:35;;;;;;;7.00;2.97;;;7.70;99.90;;;;;;5033038;28;20474;-85
2022/10/12 03:27:04;;;;;;;9.43;3.03;;;7.70;99.90;;;;;;5033025;28;20025;-90
2022/10/12 03:29:40;;;;;;;12.73;2.90;;;7.70;99.90;;;;;;5024663;28;20016;-87
2022/10/12 03:32:05;;;;;;;8.33;2.60;;;7.60;99.90;;;;;;5052655;28;20389;-87
2022/10/12 03:34:40;;;;;;;8.50;3.10;;;7.60;99.90;;;;;;5018824;28;20029;-90
2022/10/12 03:37:15;;;;;;;8.50;2.70;;;7.60;99.90;;;;;;5023765;28;20060;-85
2022/10/12 03:39:41;;;;;;;7.23;2.67;;;7.60;99.90;;;;;;5030855;28;20285;-85
2022/10/12 03:42:07;;;;;;;8.20;2.70;;;7.50;99.90;;;;;;5051513;28;20110;-83
2022/10/12 03:44:32;;;;;;;8.40;3.20;;;7.50;99.90;;;;;;5033074;28;20032;-84
2022/10/12 03:46:58;;;;;;;11.17;3.50;;;7.60;99.90;;;;;;5051230;28;20033;-84
2022/10/12 03:49:24;;;;;;;9.73;3.20;;;7.50;99.90;;;;;;5050788;28;20110;-84
2022/10/12 03:51:50;;;;;;;8.47;2.80;;;7.50;99.90;;;;;;5050281;28;20029;-85
2022/10/12 03:54:19;;;;;;;11.83;2.93;;;7.60;99.90;;;;;;5041420;28;20095;-85
2022/10/12 03:56:44;;;;;;;12.40;2.92;;;7.60;99.90;;;;;;5032745;28;20033;-84
2022/10/12 03:59:10;;;;;;;11.53;3.37;;;7.60;99.90;;;;;;5049745;28;20032;-84
2022/10/12 04:01:36;;;;;;;10.70;3.13;;;7.60;99.90;;;;;;5051161;28;20033;-84
2022/10/12 04:04:02;;;;;;;7.00;2.80;;;7.60;99.90;;;;;;5050518;28;20037;-84
2022/10/12 04:06:27;;;;;;;10.73;3.53;;;7.60;99.90;;;;;;5050514;28;20124;-84
2022/10/12 04:08:53;;;;;;;12.07;3.03;;;7.60;99.90;;;;;;5049591;28;20033;-84
2022/10/12 04:11:19;;;;;;;9.93;3.40;;;7.60;99.90;;;;;;5032719;28;20033;-84
2022/10/12 04:13:45;;;;;;;9.80;2.90;;;7.70;99.90;;;;;;5032496;28;20052;-84
2022/10/12 04:16:11;;;;;;;10.43;4.33;;;7.70;99.90;;;;;;5051199;28;20106;-84
2022/10/12 04:18:37;;;;;;;10.67;3.47;;;7.70;99.90;;;;;;5049836;28;20393;-84
2022/10/12 04:21:09;;;;;;;11.57;3.77;;;7.80;99.90;;;;;;5050644;28;20079;-84
2022/10/12 04:23:35;;;;;;;12.03;3.80;;;7.80;99.90;;;;;;5030978;28;20496;-84
2022/10/12 04:26:00;;;;;;;8.23;3.33;;;7.80;99.90;;;;;;5050669;28;20140;-84
2022/10/12 04:28:26;;;;;;;10.77;3.80;;;7.80;99.90;;;;;;5049621;28;20037;-84
2022/10/12 04:30:52;;;;;;;12.50;3.77;;;7.80;99.90;;;;;;5050287;28;20108;-84
2022/10/12 04:33:18;;;;;;;11.70;4.50;;;7.80;99.90;;;;;;5031930;28;20444;-84
2022/10/12 04:35:43;;;;;;;16.20;5.07;;;7.80;99.90;;;;;;5050257;28;20024;-84
2022/10/12 04:38:09;;;;;;;10.03;4.07;;;7.80;99.90;;;;;;5031458;28;20033;-84
2022/10/12 04:40:38;;;;;;;10.73;4.50;;;7.80;99.90;;;;;;5050092;28;20116;-84
2022/10/12 04:43:04;;;;;;;13.35;4.00;;;7.80;99.90;;;;;;5049904;28;20109;-84
2022/10/12 04:45:30;;;;;;;9.27;3.90;;;7.80;99.90;;;;;;5049746;28;20100;-84
2022/10/12 04:47:56;;;;;;;9.47;4.00;;;7.90;99.90;;;;;;5049724;28;20186;-84
2022/10/12 04:50:22;;;;;;;9.83;3.93;;;7.90;99.90;;;;;;5049800;28;20548;-84
2022/10/12 04:52:47;;;;;;;9.93;3.63;;;7.90;99.90;;;;;;5049293;28;20086;-84
2022/10/12 04:55:16;;;;;;;12.90;4.63;;;7.90;99.90;;;;;;5050231;28;20032;-92
2022/10/12 04:57:42;;;;;;;9.20;3.85;;;7.90;99.90;;;;;;5050086;28;20154;-87
2022/10/12 05:00:41;;;;;;;;;;;;;;;;;;;;;
2022/10/12 05:03:20;;;;;;;;;;;;;;;;;;;;;
2022/10/12 05:05:49;;;;;;;10.97;3.83;;;7.90;99.90;;;;;;5050329;28;20078;-86
2022/10/12 05:08:15;;;;;;;13.00;4.40;;;7.90;99.90;;;;;;5032445;28;20025;-85
2022/10/12 05:10:41;;;;;;;10.93;3.60;;;7.90;99.90;;;;;;5049329;28;20029;-85
2022/10/12 05:13:07;;;;;;;9.27;4.00;;;7.90;99.90;;;;;;5031264;28;20024;-85
2022/10/12 05:15:33;;;;;;;12.73;5.93;;;7.90;99.90;;;;;;5049312;28;20078;-85
2022/10/12 05:17:59;;;;;;;13.77;4.67;;;7.80;99.90;;;;;;5048929;28;20281;-86
2022/10/12 05:20:25;;;;;;;8.87;4.03;;;7.80;99.90;;;;;;5049323;28;20413;-86
2022/10/12 05:22:50;;;;;;;10.70;4.03;;;7.80;99.90;;;;;;5048654;28;20115;-86
2022/10/12 05:25:28;;;;;;;12.00;4.13;;;7.70;99.90;;;;;;5048233;28;20111;-87
2022/10/12 05:28:19;;;;;;;9.43;4.37;;;7.70;99.90;;;;;;5051345;28;20033;-96
2022/10/12 05:30:52;;;;;;;15.07;5.67;;;7.70;99.90;;;;;;5054953;28;20040;-92
2022/10/12 05:33:20;;;;;;;11.77;4.73;;;7.80;99.90;;;;;;5048205;28;20040;-87
2022/10/12 05:35:47;;;;;;;22.17;9.67;;;7.80;99.90;;;;;;5036547;28;20054;-86
2022/10/12 05:38:13;;;;;;;11.03;4.30;;;7.70;99.90;;;;;;5028938;28;20067;-86
2022/10/12 05:40:39;;;;;;;11.13;4.30;;;7.60;99.90;;;;;;5035485;28;20449;-86
2022/10/12 05:43:05;;;;;;;10.27;3.93;;;7.60;99.90;;;;;;5031469;28;20111;-86
2022/10/12 05:45:30;;;;;;;10.73;4.17;;;7.60;99.90;;;;;;5050859;28;20021;-86
2022/10/12 05:47:56;;;;;;;10.50;4.23;;;7.60;99.90;;;;;;5051030;28;20112;-87
2022/10/12 05:50:24;;;;;;;9.30;3.60;;;7.50;99.90;;;;;;5031937;28;20040;-86
2022/10/12 05:52:50;;;;;;;12.83;4.00;;;7.50;99.90;;;;;;5034687;28;20033;-87
2022/10/12 05:55:16;;;;;;;11.80;4.03;;;7.50;99.90;;;;;;5047796;28;20538;-86
2022/10/12 05:57:42;;;;;;;13.73;4.40;;;7.40;99.90;;;;;;5048188;28;20062;-86
2022/10/12 06:00:09;;;;;;;14.33;4.77;;;7.40;99.90;;;;;;5030361;28;20132;-86
2022/10/12 06:02:37;;;;;;;9.80;4.07;;;7.40;99.90;;;;;;5048302;28;20064;-86
2022/10/12 06:05:03;;;;;;;12.17;4.80;;;7.30;99.90;;;;;;5047665;28;20052;-86
2022/10/12 06:07:29;;;;;;;15.17;4.97;;;7.40;99.90;;;;;;5029851;28;20495;-86
2022/10/12 06:09:55;;;;;;;13.93;4.73;;;7.40;99.90;;;;;;5030292;28;20112;-86
2022/10/12 06:12:23;;;;;;;12.07;5.00;;;7.30;99.90;;;;;;5050532;28;20311;-86
2022/10/12 06:14:49;;;;;;;13.40;4.10;;;7.30;99.90;;;;;;5047824;28;20577;-86
2022/10/12 06:17:15;;;;;;;13.07;4.53;;;7.30;99.90;;;;;;5031877;28;20090;-86
2022/10/12 06:19:41;;;;;;;16.07;5.17;;;7.30;99.90;;;;;;5030176;28;20111;-86
2022/10/12 06:22:07;;;;;;;9.90;5.10;;;7.30;99.90;;;;;;5032036;28;20087;-85
2022/10/12 06:24:36;;;;;;;10.03;4.63;;;7.30;99.90;;;;;;5048201;28;20029;-88
2022/10/12 06:27:04;;;;;;;15.95;4.97;;;7.30;99.90;;;;;;5047788;28;20029;-87
2022/10/12 06:29:30;;;;;;;13.87;4.57;;;7.30;99.90;;;;;;5030101;28;20128;-85
2022/10/12 06:32:19;;;;;;;11.27;4.73;;;7.20;99.90;;;;;;5046605;28;20123;-88
2022/10/12 06:34:47;;;;;;;14.13;5.00;;;7.20;99.90;;;;;;5047806;28;20033;-86
2022/10/12 06:37:28;;;;;;;17.00;5.37;;;7.20;99.90;;;;;;5046562;28;20024;-95
2022/10/12 06:40:05;;;;;;;;;;;;;;;;;;;;;
2022/10/12 06:42:41;;;;;;;14.50;5.70;;;7.00;99.90;;;;;;5051684;28;20033;-85
2022/10/12 06:49:09;;;;;;;14.33;4.80;;;7.20;99.90;;;;;;5017883;22;20055;-74
2022/10/12 06:51:35;;;;;;;13.37;5.73;;;7.30;99.90;;;;;;5066844;28;20754;-74
2022/10/12 06:54:01;;;;;;;14.90;4.87;;;7.30;99.90;;;;;;5051327;28;20106;-75
2022/10/12 06:56:27;;;;;;;11.50;5.13;;;7.40;99.90;;;;;;5038216;28;20024;-75
2022/10/12 06:58:55;;;;;;;12.67;5.03;;;7.50;99.90;;;;;;5051710;28;20028;-75
2022/10/12 07:01:21;;;;;;;12.55;5.10;;;7.50;99.90;;;;;;5039321;28;20040;-75
2022/10/12 07:03:47;;;;;;;15.07;5.50;;;7.60;99.90;;;;;;5051804;28;20037;-74
2022/10/12 07:06:13;;;;;;;14.67;5.13;;;7.70;99.90;;;;;;5051271;28;20095;-74
2022/10/12 07:08:40;;;;;;;13.67;5.20;;;7.70;99.90;;;;;;5050425;28;20485;-73
2022/10/12 07:11:09;;;;;;;13.27;5.40;;;7.80;99.90;;;;;;5055794;28;20242;-73
2022/10/12 07:13:35;;;;;;;13.87;5.30;;;7.90;99.90;;;;;;5052805;28;20055;-74
2022/10/12 07:16:01;;;;;;;16.80;6.03;;;7.90;99.90;;;;;;5053985;28;20074;-73
2022/10/12 07:18:27;;;;;;;14.83;5.23;;;8.00;99.90;;;;;;5055200;28;20108;-75
2022/10/12 07:20:56;;;;;;;15.57;5.03;;;8.10;99.90;;;;;;5053359;28;20120;-73
2022/10/12 07:23:22;;;;;;;;;;;8.20;99.90;;;;;;5056067;28;20120;-74
2022/10/12 07:25:48;;;;;;;10.10;4.67;;;8.20;99.90;;;;;;5032647;28;19987;-75
2022/10/12 07:28:15;;;;;;;16.60;5.53;;;8.30;99.90;;;;;;5051419;28;20557;-74
2022/10/12 07:30:41;;;;;;;14.77;4.87;;;8.40;99.90;;;;;;5051141;28;20128;-74
2022/10/12 07:33:07;;;;;;;13.60;4.60;;;8.50;99.90;;;;;;5050740;28;20481;-74
2022/10/12 07:35:33;;;;;;;12.10;4.90;;;8.60;99.90;;;;;;5032639;28;20085;-75
2022/10/12 07:37:59;;;;;;;14.37;5.00;;;8.70;99.90;;;;;;5050384;28;20021;-74
2022/10/12 07:40:26;;;;;;;14.47;4.87;;;8.80;99.90;;;;;;5050745;28;20492;-74
2022/10/12 07:42:53;;;;;;;16.27;5.00;;;8.90;99.90;;;;;;5051507;28;20504;-72
2022/10/12 07:45:18;;;;;;;14.23;4.63;;;9.00;99.90;;;;;;5049958;28;20029;-72
2022/10/12 07:47:45;;;;;;;13.33;5.00;;;9.00;99.90;;;;;;5051825;28;20398;-73
2022/10/12 07:50:11;;;;;;;14.20;4.83;;;9.10;99.90;;;;;;5050005;28;20109;-72
2022/10/12 07:52:37;;;;;;;12.60;5.37;;;9.20;99.90;;;;;;5051851;28;20074;-73
2022/10/12 07:55:03;;;;;;;11.70;5.70;;;9.20;99.90;;;;;;5049785;28;20024;-73
2022/10/12 07:57:29;;;;;;;11.60;6.47;;;9.30;99.90;;;;;;5033765;28;20036;-72
2022/10/12 07:59:55;;;;;;;17.00;8.17;;;9.40;99.90;;;;;;5049858;28;20029;-73
2022/10/12 08:02:21;;;;;;;19.60;9.73;;;9.40;99.90;;;;;;5053133;28;20134;-73
2022/10/12 08:04:46;;;;;;;19.10;11.00;;;9.40;99.90;;;;;;5031986;28;20067;-73
2022/10/12 08:07:12;;;;;;;24.40;11.73;;;9.50;99.90;;;;;;5053014;28;20041;-74
2022/10/12 08:09:38;;;;;;;15.57;7.17;;;9.50;99.90;;;;;;5050532;28;20017;-74
2022/10/12 08:12:04;;;;;;;16.97;6.23;;;9.60;99.90;;;;;;5053597;28;20049;-73
2022/10/12 08:14:30;;;;;;;14.53;5.50;;;9.60;99.90;;;;;;5031349;28;20029;-71
2022/10/12 08:16:56;;;;;;;11.00;4.80;;;9.60;99.90;;;;;;5045786;28;20075;-71
2022/10/12 08:19:21;;;;;;;11.80;4.30;;;9.60;99.90;;;;;;5050256;28;20108;-73
2022/10/12 08:21:48;;;;;;;14.37;4.20;;;9.60;99.90;;;;;;5053651;28;20033;-72
2022/10/12 08:24:14;;;;;;;15.60;4.03;;;9.60;99.90;;;;;;5031964;28;20508;-73
2022/10/12 08:26:40;;;;;;;11.80;4.13;;;9.70;99.90;;;;;;5053898;28;20111;-73
2022/10/12 08:29:07;;;;;;;11.77;3.93;;;9.70;99.90;;;;;;5049204;28;20535;-73
2022/10/12 08:31:33;;;;;;;12.30;3.87;;;9.70;99.90;;;;;;5053699;28;20028;-73
2022/10/12 08:33:59;;;;;;;13.67;3.60;;;9.80;99.90;;;;;;5033859;28;20029;-73
2022/10/12 08:36:25;;;;;;;12.13;3.67;;;9.90;99.90;;;;;;5008632;28;20033;-73
2022/10/12 08:38:53;;;;;;;9.20;3.73;;;9.90;99.90;;;;;;5066140;28;20036;-71
2022/10/12 08:41:50;;;;;;;11.03;3.70;;;9.90;99.90;;;;;;5069985;28;20397;-73
2022/10/12 08:44:30;;;;;;;10.63;3.43;;;10.00;99.90;;;;;;5068197;28;20104;-72
2022/10/12 08:47:05;;;;;;;12.10;3.80;;;10.00;99.90;;;;;;5050221;28;20215;-71
2022/10/12 08:49:32;;;;;;;7.07;3.23;;;10.10;99.90;;;;;;5049745;28;20106;-72
2022/10/12 08:52:05;;;;;;;10.90;3.57;;;10.10;99.90;;;;;;5049222;28;20082;-72
2022/10/12 08:54:40;;;;;;;11.03;3.67;;;10.20;99.90;;;;;;5049090;28;20116;-72
2022/10/12 08:57:15;;;;;;;12.87;3.70;;;10.20;99.90;;;;;;5051148;28;20713;-73
2022/10/12 08:59:41;;;;;;;9.50;3.77;;;10.30;99.90;;;;;;5068922;28;20030;-73
2022/10/12 09:02:25;;;;;;;14.87;4.03;;;10.30;99.90;;;;;;5068604;28;20028;-75
2022/10/12 09:05:08;;;;;;;12.67;3.60;;;10.50;99.90;;;;;;5062533;28;20500;-73
2022/10/12 09:07:42;;;;;;;8.30;2.70;;;10.50;99.90;;;;;;5048573;28;20056;-72
2022/10/12 09:10:45;;;;;;;15.27;7.60;;;10.60;99.90;;;;;;5048888;28;20067;-72
2022/10/12 09:13:59;;;;;;;12.17;5.20;;;10.70;99.90;;;;;;5049128;28;20044;-75
2022/10/12 09:16:28;;;;;;;14.97;5.23;;;10.70;99.90;;;;;;5002592;28;20069;-71
2022/10/12 09:19:05;;;;;;;12.38;4.95;;;10.80;99.90;;;;;;5030902;28;20040;-72
2022/10/12 09:21:32;;;;;;;12.20;4.40;;;10.80;99.90;;;;;;5048754;28;20029;-74
2022/10/12 09:23:58;;;;;;;9.40;3.27;;;10.90;99.90;;;;;;5030763;28;20040;-76
2022/10/12 09:26:38;;;;;;;12.20;3.60;;;10.80;99.90;;;;;;5047431;28;20132;-76
2022/10/12 09:29:33;;;;;;;8.40;2.63;;;10.90;99.90;;;;;;5049058;28;20044;-73
2022/10/12 09:32:25;;;;;;;7.60;2.73;;;10.90;99.90;;;;;;5027385;28;20863;-73
2022/10/12 09:34:51;;;;;;;15.23;3.53;;;11.00;99.90;;;;;;5047385;28;20033;-73
2022/10/12 09:37:22;;;;;;;13.23;3.20;;;11.00;99.90;;;;;;5030815;28;20028;-72
2022/10/12 09:39:49;;;;;;;8.23;2.60;;;11.00;99.90;;;;;;5048773;28;20025;-75
2022/10/12 09:42:16;;;;;;;9.40;2.33;;;11.00;99.90;;;;;;5048483;28;20041;-73
2022/10/12 09:45:17;;;;;;;8.63;2.23;;;11.10;99.90;;;;;;5046800;28;20052;-74
2022/10/12 09:48:12;;;;;;;7.53;2.10;;;11.10;99.90;;;;;;5048861;28;20196;-72
2022/10/12 09:50:47;;;;;;;9.70;2.43;;;11.20;99.90;;;;;;5014603;28;20124;-73
2022/10/12 09:53:20;;;;;;;8.63;2.70;;;11.20;99.90;;;;;;5047972;28;20112;-76
2022/10/12 09:56:06;;;;;;;6.40;2.20;;;11.20;99.90;;;;;;5046552;28;20033;-73
2022/10/12 09:58:57;;;;;;;8.90;2.50;;;11.20;99.90;;;;;;5030173;28;20097;-74
2022/10/12 10:01:26;;;;;;;6.77;2.40;;;11.30;99.90;;;;;;5048099;28;20049;-76
2022/10/12 10:04:13;;;;;;;8.18;2.17;;;11.30;99.90;;;;;;5048380;28;20056;-74
2022/10/12 10:06:42;;;;;;;6.97;2.23;;;11.40;99.90;;;;;;5047069;28;20029;-72
2022/10/12 10:09:29;;;;;;;9.27;2.23;;;11.40;99.90;;;;;;5030246;28;20748;-74
2022/10/12 10:12:14;;;;;;;6.00;2.10;;;11.50;99.90;;;;;;5030284;28;20111;-74
2022/10/12 10:14:43;;;;;;;6.63;2.30;;;11.50;99.90;;;;;;5045808;28;20061;-75
2022/10/12 10:17:13;;;;;;;;;;;11.50;99.90;;;;;;5030654;28;20104;-72
2022/10/12 10:19:39;;;;;;;8.63;2.70;;;11.50;99.90;;;;;;5030572;28;20001;-71
2022/10/12 10:22:08;;;;;;;10.93;2.90;;;11.50;99.90;;;;;;5049731;28;20152;-71
2022/10/12 10:24:34;;;;;;;12.48;3.33;;;11.40;99.90;;;;;;5031705;28;20041;-73
2022/10/12 10:27:03;;;;;;;11.23;3.43;;;11.50;99.90;;;;;;5051869;28;20029;-69
2022/10/12 10:29:39;;;;;;;11.50;3.37;;;11.50;99.90;;;;;;5052095;28;20489;-72
2022/10/12 10:32:25;;;;;;;8.03;2.60;;;11.60;99.90;;;;;;5052338;28;20044;-71
2022/10/12 10:35:19;;;;;;;8.73;2.80;;;11.60;99.90;;;;;;5052157;28;20052;-72
2022/10/12 10:37:46;;;;;;;9.87;2.57;;;11.70;99.90;;;;;;5051918;28;20025;-73
2022/10/12 10:40:28;;;;;;;7.93;2.10;;;11.70;99.90;;;;;;5052176;28;20342;-72
2022/10/12 10:43:02;;;;;;;7.27;2.47;;;11.60;99.90;;;;;;5052314;28;20525;-73
2022/10/12 10:45:36;;;;;;;8.37;2.70;;;11.70;99.90;;;;;;5034423;28;20031;-73
2022/10/12 10:48:08;;;;;;;7.83;2.47;;;11.70;99.90;;;;;;5052170;28;20025;-71
2022/10/12 10:50:39;;;;;;;10.50;2.70;;;11.70;99.90;;;;;;5051759;28;20493;-73
2022/10/12 10:53:17;;;;;;;7.83;2.47;;;11.70;99.90;;;;;;5051749;28;20037;-73
2022/10/12 10:56:04;;;;;;;8.03;2.67;;;11.70;99.90;;;;;;5052224;28;20029;-72
2022/10/12 10:58:42;;;;;;;8.63;3.70;;;11.70;99.90;;;;;;5052084;28;20044;-75
2022/10/12 11:01:20;;;;;;;12.73;5.40;;;11.70;99.90;;;;;;5051932;28;20033;-76
2022/10/12 11:03:56;;;;;;;11.17;3.80;;;11.80;99.90;;;;;;5051909;28;20056;-75
2022/10/12 11:06:42;;;;;;;14.00;4.03;;;11.80;99.90;;;;;;5034216;28;20098;-76
2022/10/12 11:09:24;;;;;;;10.20;3.53;;;11.80;99.90;;;;;;5051468;28;20084;-76
2022/10/12 11:12:02;;;;;;;10.97;3.77;;;11.80;99.90;;;;;;5041873;28;20040;-74
2022/10/12 11:14:44;;;;;;;9.33;3.00;;;11.90;99.90;;;;;;5019373;28;20029;-74
2022/10/12 11:17:21;;;;;;;9.47;2.87;;;11.90;99.90;;;;;;5031724;28;20033;-75
2022/10/12 11:20:18;;;;;;;9.02;3.15;;;11.90;99.90;;;;;;5046305;28;20494;-75
2022/10/12 11:22:53;;;;;;;8.90;3.10;;;12.00;99.90;;;;;;5051552;28;20052;-76
2022/10/12 11:25:44;;;;;;;11.07;3.93;;;12.00;99.90;;;;;;5051758;28;20198;-75
2022/10/12 11:28:14;;;;;;;11.75;3.58;;;12.00;99.90;;;;;;5051428;28;20124;-75
2022/10/12 11:30:45;;;;;;;9.13;3.00;;;12.10;99.90;;;;;;5050845;28;20051;-75
2022/10/12 11:33:37;;;;;;;9.97;3.00;;;12.10;99.90;;;;;;5050866;28;20033;-74
2022/10/12 11:36:07;;;;;;;6.77;2.47;;;12.20;99.90;;;;;;5032608;28;20120;-74
2022/10/12 11:38:39;;;;;;;9.20;3.42;;;12.30;99.90;;;;;;5050521;28;20477;-74
2022/10/12 11:41:05;;;;;;;8.73;3.05;;;12.30;99.90;;;;;;5051035;28;20470;-74
2022/10/12 11:43:39;;;;;;;12.02;3.88;;;12.40;99.90;;;;;;5050356;28;20163;-75
2022/10/12 11:46:09;;;;;;;8.57;3.03;;;12.50;99.90;;;;;;5050577;28;20044;-74
2022/10/12 11:48:58;;;;;;;11.15;3.08;;;12.60;99.90;;;;;;5050278;28;20029;-76
2022/10/12 11:51:24;;;;;;;10.48;3.40;;;12.70;99.90;;;;;;5050292;28;20037;-75
2022/10/12 11:54:25;;;;;;;10.50;3.42;;;12.80;99.90;;;;;;5031991;28;20440;-74
2022/10/12 11:56:55;;;;;;;10.65;3.15;;;12.90;99.90;;;;;;5050377;28;20025;-75
2022/10/12 11:59:37;;;;;;;10.15;3.67;;;13.00;99.90;;;;;;5059572;22;20049;-69
2022/10/12 12:02:09;;;;;;;10.98;3.38;;;13.00;99.90;;;;;;5030726;28;20063;-69
2022/10/12 12:04:40;;;;;;;9.00;3.35;;;13.00;99.90;;;;;;5031270;28;20065;-69
2022/10/12 12:07:37;;;;;;;6.75;2.92;;;12.90;99.90;;;;;;5030231;28;20040;-69
2022/10/12 12:10:33;;;;;;;10.77;3.63;;;13.00;99.90;;;;;;5031001;28;20037;-69
2022/10/12 12:13:18;;;;;;;9.88;3.17;;;13.00;99.90;;;;;;5030646;28;20425;-69
2022/10/12 12:15:46;;;;;;;10.68;2.97;;;13.00;99.90;;;;;;5030493;28;20513;-69
2022/10/12 12:18:22;;;;;;;13.07;4.00;;;13.00;99.90;;;;;;5030492;28;20505;-69
2022/10/12 12:20:48;;;;;;;10.32;2.97;;;13.00;99.90;;;;;;5030821;28;20053;-69
2022/10/12 12:23:23;;;;;;;11.77;3.17;;;13.10;99.90;;;;;;5030141;28;20481;-69
2022/10/12 12:26:10;;;;;;;11.30;3.45;;;13.10;99.90;;;;;;5030574;28;20120;-69
2022/10/12 12:29:10;;;;;;;17.65;6.88;;;13.20;99.90;;;;;;5030020;28;20029;-69
2022/10/12 12:31:36;;;;;;;15.80;6.43;;;13.20;99.90;;;;;;5026548;28;20049;-69
2022/10/12 12:34:22;;;;;;;12.27;4.00;;;13.20;99.90;;;;;;5012447;28;20083;-69
2022/10/12 12:36:50;;;;;;;10.07;3.05;;;13.10;99.90;;;;;;5029176;28;20381;-69
2022/10/12 12:39:25;;;;;;;8.13;3.42;;;13.10;99.90;;;;;;5030269;28;20482;-69
2022/10/12 12:42:00;;;;;;;13.32;3.55;;;13.10;99.90;;;;;;5029909;28;20025;-69
2022/10/12 12:44:46;;;;;;;13.30;3.75;;;13.10;99.90;;;;;;5029360;28;20496;-69
2022/10/12 12:47:12;;;;;;;10.90;3.50;;;13.20;99.90;;;;;;5034582;28;20128;-69
2022/10/12 12:49:53;;;;;;;12.43;3.40;;;13.20;99.90;;;;;;5050084;28;20545;-70
2022/10/12 12:52:31;;;;;;;11.20;3.50;;;13.20;99.90;;;;;;5049664;28;20037;-71
2022/10/12 12:55:09;;;;;;;8.10;3.15;;;13.30;99.90;;;;;;5050094;28;20033;-72
2022/10/12 12:57:56;;;;;;;9.87;3.23;;;13.70;99.90;;;;;;5032007;28;20497;-71
2022/10/12 13:00:30;;;;;;;10.57;3.33;;;14.10;99.90;;;;;;5049891;28;20033;-72
2022/10/12 13:03:27;;;;;;;11.88;3.60;;;14.20;99.90;;;;;;5049906;28;20036;-69
2022/10/12 13:06:29;;;;;;;12.07;2.92;;;14.30;99.90;;;;;;5049941;28;20095;-70
2022/10/12 13:09:16;;;;;;;11.75;4.50;;;14.20;99.70;;;;;;5043553;28;20123;-69
2022/10/12 13:12:03;;;;;;;11.20;3.92;;;14.10;99.80;;;;;;5030052;28;20033;-69
2022/10/12 13:14:53;;;;;;;9.65;3.50;;;13.90;99.90;;;;;;5029624;28;20340;-69
2022/10/12 13:17:31;;;;;;;8.48;3.88;;;13.90;99.90;;;;;;5043469;28;20039;-69
2022/10/12 13:20:00;;;;;;;7.60;3.63;;;13.80;99.90;;;;;;5049265;28;20029;-69
2022/10/12 13:22:28;;;;;;;;;;;13.80;99.90;;;;;;5049219;28;20086;-69
2022/10/12 13:24:59;;;;;;;11.23;4.68;;;13.80;99.90;;;;;;5049621;28;19912;-70